Friday, November 17, 2017, 7:34 PM GMT
Back to Local

CYWA, Petawawa, Ont.

Location: , , Canada Lat: 45.95
Local Time: 7:34 PM GMT (19:34 GMT) Lon: -77.317
Time Zone: GMT Elev: 426 ft

Show me the last for .
Show Decoded

2017-11-17 19:00 METAR CYWA 171900Z 30004KT 260V340 15SM FEW250 M01/M13 A3015 RMK CI2 DA-1717FT
                 SLP220 =
2017-11-17 18:00 METAR CYWA 171800Z 29005KT 270V360 15SM FEW250 M02/M13 A3018 RMK CI2 DA-1817FT
                 SLP227 =
2017-11-17 17:00 METAR CYWA 171700Z 32008KT 290V010 15SM FEW250 M03/M13 A3020 RMK CI1 DA-2030FT
                 SLP236 =
2017-11-17 16:00 METAR CYWA 171600Z 34009KT 290V350 15SM FEW250 M04/M13 A3022 RMK CI1 DA-2117FT
                 SLP244 =
2017-11-17 15:00 METAR CYWA 171500Z 33010KT 15SM FEW010 FEW250 M05/M13 A3023 RMK CF1CI1 DA-2297FT
                 SLP245 =
2017-11-17 14:00 METAR CYWA 171400Z 32011KT 15SM FEW010 M06/M13 A3023 RMK SF1 DA-2439FT SLP245 =
2017-11-17 13:00 METAR CYWA 171300Z 33015KT 15SM FEW010 M07/M12 A3022 RMK SF1 DA-2544FT SLP244 =
2017-11-17 12:00 METAR CYWA 171200Z 31008KT 15SM FEW010 M08/M12 A3022 RMK SF1 DA-2610FT SLP242 =
2017-11-17 11:00 METAR CYWA 171100Z 32011KT 15SM FEW020 M07/M12 A3020 RMK SC2 DA-2508FT FST STFD
                 OBS SLP237 =
2017-11-17 10:00 METAR CYWA 171000Z AUTO 33014G20KT 9SM M07/M12 A3018 =
2017-11-17 09:00 METAR CYWA 170900Z AUTO 31013G18KT 9SM M06/M12 A3017 =
2017-11-17 08:00 METAR CYWA 170800Z AUTO 30009G15KT 9SM M06/M11 A3014 =
2017-11-17 07:00 METAR CYWA 170700Z AUTO 32017G22KT 9SM M04/M10 A3011 =
2017-11-17 06:00 METAR CYWA 170600Z AUTO 31012G17KT 9SM M04/M09 A3008 =
2017-11-17 05:00 METAR CYWA 170500Z AUTO 32016G26KT 9SM M03/M08 A3007 =
2017-11-17 04:02 METAR CYWA 170402Z AUTO 34017G28KT 9SM OVC025 M03/M08 A3004 =
2017-11-17 04:00 METAR CYWA 170400Z AUTO 34018G28KT 9SM OVC023 M03/M08 A3004 =
2017-11-17 03:00 METAR CYWA 170300Z AUTO 32017G24KT 9SM M02/M07 A3001 =
2017-11-17 00:00 METAR CYWA 170000Z 32020KT 15SM -SN OVC022 00/M05 A2992 RMK SC8 DA-1237FT WND
                 ESTD SLP137 =
2017-11-16 23:00 METAR CYWA 162300Z 34015G20KT 8SM -SN BKN022 OVC040 00/M04 A2986 RMK SC6SC2
                 DA-1126FT SLP119 =
2017-11-16 22:00 METAR CYWA 162200Z 32013G21KT 8SM -RASN SCT010 BKN025 OVC040 01/M03 A2981 RMK
                 SF4SC3SC1 DA-984FT PRESRR SLP101 =
2017-11-16 21:00 METAR CYWA 162100Z 32015G24KT 10SM -RA FEW012 BKN025 OVC045 03/M01 A2975 RMK
                 SF2SC5SC1 DA-709FT SENT VIA =
2017-11-16 20:00 METAR CYWA 162000Z 31013G22KT 8SM -RA SCT010 OVC020 03/01 A2969 RMK SF4SC4
                 DA-625FT SLP043 =

Support USWX by starting your Amazon purchase here.